createdAt,value
2017-07-31T00:00:57.117Z,51.30
2017-07-31T00:03:25.495Z,51.60
2017-07-31T00:05:53.062Z,51.60
2017-07-31T00:08:21.735Z,51.80
2017-07-31T00:10:49.300Z,51.70
2017-07-31T00:13:16.862Z,52.10
2017-07-31T00:15:44.450Z,52.40
2017-07-31T00:18:12.017Z,51.40
2017-07-31T00:20:40.071Z,52.60
2017-07-31T00:23:07.659Z,52.60
2017-07-31T00:25:35.210Z,52.50
2017-07-31T00:28:02.810Z,52.70
2017-07-31T00:30:30.380Z,52.50
2017-07-31T00:32:58.249Z,52.40
2017-07-31T00:35:25.830Z,52.20
2017-07-31T00:37:54.171Z,52.10
2017-07-31T00:40:21.783Z,52.00
2017-07-31T00:42:49.346Z,52.30
2017-07-31T00:45:17.260Z,52.20
2017-07-31T00:47:44.840Z,52.10
2017-07-31T00:50:12.434Z,52.20
2017-07-31T00:52:40.059Z,51.70
2017-07-31T00:55:08.397Z,52.00
2017-07-31T00:57:36.407Z,51.90
2017-07-31T01:00:04.726Z,51.30
2017-07-31T01:02:32.407Z,51.80
2017-07-31T01:05:00.018Z,52.00
2017-07-31T01:07:28.387Z,51.90
2017-07-31T01:09:56.359Z,51.80
2017-07-31T01:12:24.769Z,52.20
2017-07-31T01:14:52.328Z,52.10
2017-07-31T01:17:19.937Z,52.70
2017-07-31T01:19:47.518Z,52.90
2017-07-31T01:22:15.471Z,53.50
2017-07-31T01:24:43.871Z,54.00
2017-07-31T01:27:11.446Z,54.40
2017-07-31T01:29:39.053Z,54.30
2017-07-31T01:32:06.734Z,54.60
2017-07-31T01:34:34.602Z,54.40
2017-07-31T01:37:02.312Z,54.10
2017-07-31T01:39:29.852Z,53.60
2017-07-31T01:41:57.463Z,53.60
2017-07-31T01:44:25.029Z,53.70
2017-07-31T01:46:52.903Z,53.60
2017-07-31T01:49:20.457Z,53.50
2017-07-31T01:51:48.022Z,54.40
2017-07-31T01:54:15.603Z,54.30
2017-07-31T01:56:43.161Z,54.00
2017-07-31T01:59:11.821Z,54.40
2017-07-31T02:01:39.369Z,54.30
2017-07-31T02:04:06.922Z,54.80
2017-07-31T02:06:34.528Z,54.80
2017-07-31T02:09:02.094Z,54.50
2017-07-31T02:11:30.749Z,54.00
2017-07-31T02:13:58.351Z,53.70
2017-07-31T02:16:25.925Z,53.80
2017-07-31T02:18:53.524Z,54.10
2017-07-31T02:21:21.087Z,54.20
2017-07-31T02:23:49.043Z,54.00
2017-07-31T02:26:16.613Z,55.30
2017-07-31T02:28:44.180Z,56.00
2017-07-31T02:31:11.879Z,58.90
2017-07-31T02:33:39.441Z,59.30
2017-07-31T02:36:07.397Z,60.00
2017-07-31T02:38:35.724Z,60.20
2017-07-31T02:41:03.295Z,60.20
2017-07-31T02:43:30.895Z,60.60
2017-07-31T02:45:58.667Z,60.80
2017-07-31T02:48:27.315Z,61.30
2017-07-31T02:50:54.907Z,61.30
2017-07-31T02:53:22.483Z,61.70
2017-07-31T02:55:50.077Z,61.20
2017-07-31T02:58:17.645Z,64.20
2017-07-31T03:00:45.654Z,65.30
2017-07-31T03:03:13.984Z,67.00
2017-07-31T03:05:41.554Z,67.00
2017-07-31T03:08:09.151Z,68.10
2017-07-31T03:10:36.720Z,68.00
2017-07-31T03:13:05.392Z,69.70
2017-07-31T03:15:33.727Z,71.00
2017-07-31T03:18:01.290Z,71.00
2017-07-31T03:20:29.104Z,71.00
2017-07-31T03:22:57.424Z,71.80
2017-07-31T03:25:25.302Z,71.20
2017-07-31T03:27:52.859Z,74.10
2017-07-31T03:30:20.422Z,74.10
2017-07-31T03:32:48.323Z,75.90
2017-07-31T03:35:16.646Z,75.90
2017-07-31T03:37:44.513Z,75.40
2017-07-31T03:40:12.094Z,76.40
2017-07-31T03:42:39.653Z,78.30
2017-07-31T03:45:07.250Z,77.20
2017-07-31T03:47:35.578Z,76.70
2017-07-31T03:50:03.582Z,76.60
2017-07-31T03:52:31.158Z,77.60
2017-07-31T03:54:58.727Z,76.10
2017-07-31T03:57:27.102Z,76.70
2017-07-31T03:59:54.722Z,76.70
2017-07-31T04:02:22.575Z,78.00
2017-07-31T04:04:50.171Z,77.10
2017-07-31T04:07:17.860Z,76.60
2017-07-31T04:09:45.514Z,77.00
2017-07-31T04:12:13.848Z,78.00
2017-07-31T04:14:41.839Z,77.80
2017-07-31T04:17:09.387Z,77.70
2017-07-31T04:19:36.936Z,75.70
2017-07-31T04:22:04.561Z,76.80
2017-07-31T04:24:32.120Z,78.00
2017-07-31T04:27:00.145Z,75.70
2017-07-31T04:29:27.724Z,76.90
2017-07-31T04:31:55.273Z,76.40
2017-07-31T04:34:22.940Z,75.80
2017-07-31T04:36:51.292Z,75.50
2017-07-31T04:39:19.260Z,75.40
2017-07-31T04:41:46.814Z,76.10
2017-07-31T04:44:14.371Z,75.20
2017-07-31T04:46:41.976Z,74.40
2017-07-31T04:49:09.533Z,76.10
2017-07-31T04:51:38.186Z,74.60
2017-07-31T04:54:05.755Z,74.50
2017-07-31T04:56:33.318Z,75.30
2017-07-31T04:59:00.926Z,75.70
2017-07-31T05:01:28.474Z,75.30
2017-07-31T05:03:56.501Z,74.40
2017-07-31T05:06:24.062Z,73.60
2017-07-31T05:08:51.633Z,74.50
2017-07-31T05:11:19.241Z,74.60
2017-07-31T05:13:47.033Z,74.20
2017-07-31T05:16:15.027Z,74.50
2017-07-31T05:18:42.616Z,74.10
2017-07-31T05:21:10.196Z,73.80
2017-07-31T05:23:37.803Z,73.90
2017-07-31T05:26:05.364Z,74.50
2017-07-31T05:28:33.330Z,74.10
2017-07-31T05:31:00.891Z,74.60
2017-07-31T05:33:28.586Z,74.30
2017-07-31T05:35:56.301Z,74.40
2017-07-31T05:38:23.875Z,74.40
2017-07-31T05:40:51.843Z,73.00
2017-07-31T05:43:19.404Z,73.90
2017-07-31T05:45:46.970Z,74.10
2017-07-31T05:48:14.570Z,73.50
2017-07-31T05:50:42.623Z,71.60
2017-07-31T05:53:10.561Z,71.70
2017-07-31T05:55:38.127Z,70.90
2017-07-31T05:58:05.693Z,71.60
2017-07-31T06:00:33.305Z,72.00
2017-07-31T06:03:00.864Z,71.70
2017-07-31T06:05:28.869Z,71.10
2017-07-31T06:07:56.437Z,70.60
2017-07-31T06:10:23.993Z,69.00
2017-07-31T06:12:51.613Z,67.80
2017-07-31T06:15:19.182Z,68.70
2017-07-31T06:17:47.186Z,69.20
2017-07-31T06:20:14.757Z,67.40
2017-07-31T06:22:42.323Z,66.70
2017-07-31T06:25:10.689Z,66.70
2017-07-31T06:27:38.237Z,66.70
2017-07-31T06:30:06.299Z,66.10
2017-07-31T06:32:33.870Z,66.30
2017-07-31T06:35:01.443Z,66.20
2017-07-31T06:37:29.807Z,65.50
2017-07-31T06:39:57.376Z,65.50
2017-07-31T06:44:58.983Z,64.80
2017-07-31T06:47:26.810Z,64.30
2017-07-31T06:49:54.378Z,64.10
2017-07-31T06:52:22.721Z,62.40
2017-07-31T06:54:50.317Z,62.90
2017-07-31T06:57:18.852Z,63.80
2017-07-31T06:59:46.851Z,63.90
2017-07-31T07:02:14.400Z,63.00
2017-07-31T07:04:41.954Z,63.00
2017-07-31T07:07:09.551Z,63.10
2017-07-31T07:09:37.140Z,63.20
2017-07-31T07:12:04.977Z,63.20
2017-07-31T07:14:33.313Z,63.40
2017-07-31T07:17:00.880Z,63.30
2017-07-31T07:19:28.499Z,61.70
2017-07-31T07:21:56.087Z,61.90
2017-07-31T07:24:24.076Z,62.00
2017-07-31T07:26:51.631Z,61.10
2017-07-31T07:29:19.179Z,59.90
2017-07-31T07:31:46.809Z,60.00
2017-07-31T07:34:14.382Z,59.70
2017-07-31T07:36:42.270Z,60.40
2017-07-31T07:39:09.833Z,60.00
2017-07-31T07:41:37.401Z,58.90
2017-07-31T07:44:05.032Z,58.90
2017-07-31T07:46:32.599Z,58.50
2017-07-31T07:49:00.502Z,58.50
2017-07-31T07:51:28.056Z,58.50
2017-07-31T07:53:55.624Z,58.60
2017-07-31T07:56:23.217Z,59.00
2017-07-31T07:58:50.776Z,58.80
2017-07-31T08:01:18.821Z,58.60
2017-07-31T08:03:46.533Z,58.40
2017-07-31T08:06:14.094Z,57.50
2017-07-31T08:08:41.699Z,57.80
2017-07-31T08:11:09.289Z,57.60
2017-07-31T08:13:37.248Z,56.50
2017-07-31T08:16:04.792Z,57.20
2017-07-31T08:18:32.339Z,56.50
2017-07-31T08:20:59.975Z,56.80
2017-07-31T08:23:27.553Z,56.40
2017-07-31T08:25:55.439Z,55.40
2017-07-31T08:28:23.051Z,55.70
2017-07-31T08:30:50.684Z,53.20
2017-07-31T08:33:18.306Z,54.20
2017-07-31T08:35:45.882Z,53.60
2017-07-31T08:38:13.767Z,54.10
2017-07-31T08:40:42.092Z,52.90
2017-07-31T08:43:09.674Z,52.80
2017-07-31T08:45:37.271Z,52.90
2017-07-31T08:48:04.828Z,53.00
2017-07-31T08:50:32.846Z,53.00
2017-07-31T08:53:00.473Z,53.20
2017-07-31T08:55:28.155Z,51.80
2017-07-31T08:57:55.823Z,52.30
2017-07-31T09:00:23.428Z,51.40
2017-07-31T09:02:51.408Z,51.10
2017-07-31T09:05:19.751Z,50.50
2017-07-31T09:07:47.334Z,50.40
2017-07-31T09:10:15.724Z,50.40
2017-07-31T09:12:43.295Z,50.30
2017-07-31T09:15:11.164Z,48.50
2017-07-31T09:17:38.705Z,48.40
2017-07-31T09:20:06.278Z,47.60
2017-07-31T09:22:33.956Z,47.00
2017-07-31T09:25:01.523Z,47.80
2017-07-31T09:27:29.429Z,47.70
2017-07-31T09:29:56.987Z,46.60
2017-07-31T09:32:24.520Z,46.50
2017-07-31T09:34:52.103Z,46.60
2017-07-31T09:37:19.674Z,46.60
2017-07-31T09:39:47.715Z,46.00
2017-07-31T09:42:15.276Z,45.80
2017-07-31T09:44:43.111Z,45.20
2017-07-31T09:47:10.720Z,44.90
2017-07-31T09:49:38.279Z,43.60
2017-07-31T09:52:06.243Z,44.20
2017-07-31T09:54:33.800Z,42.50
2017-07-31T09:57:01.369Z,42.50
2017-07-31T09:59:28.975Z,43.10
2017-07-31T10:01:56.533Z,44.10
2017-07-31T10:04:24.388Z,43.60
2017-07-31T10:06:52.713Z,42.90
2017-07-31T10:09:20.269Z,42.70
2017-07-31T10:11:47.860Z,42.50
2017-07-31T10:14:15.420Z,42.30
2017-07-31T10:16:43.290Z,41.00
2017-07-31T10:19:10.836Z,40.70
2017-07-31T10:21:38.402Z,41.00
2017-07-31T10:24:06.068Z,41.40
2017-07-31T10:26:34.517Z,41.40
2017-07-31T10:29:02.414Z,42.40
2017-07-31T10:31:29.985Z,41.80
2017-07-31T10:33:57.541Z,42.10
2017-07-31T10:36:25.141Z,41.20
2017-07-31T10:38:52.707Z,40.70
2017-07-31T10:41:20.718Z,40.40
2017-07-31T10:43:48.272Z,41.20
2017-07-31T10:46:15.837Z,40.80
2017-07-31T10:48:43.462Z,40.90
2017-07-31T10:51:11.020Z,40.00
2017-07-31T10:53:38.959Z,40.90
2017-07-31T10:56:06.518Z,40.70
2017-07-31T10:58:34.101Z,40.60
2017-07-31T11:01:01.689Z,40.10
2017-07-31T11:03:29.271Z,40.00
2017-07-31T11:05:57.198Z,40.60
2017-07-31T11:08:24.756Z,40.50
2017-07-31T11:10:52.321Z,40.10
2017-07-31T11:13:19.994Z,41.30
2017-07-31T11:15:47.563Z,40.60
2017-07-31T11:18:15.489Z,40.40
2017-07-31T11:20:43.048Z,40.00
2017-07-31T11:23:10.603Z,39.90
2017-07-31T11:25:38.207Z,40.50
2017-07-31T11:28:05.808Z,39.60
2017-07-31T11:30:33.650Z,40.90
2017-07-31T11:33:01.216Z,40.50
2017-07-31T11:35:28.767Z,40.90
2017-07-31T11:37:56.370Z,40.50
2017-07-31T11:40:23.918Z,38.90
2017-07-31T11:42:51.864Z,38.90
2017-07-31T11:45:19.436Z,40.10
2017-07-31T11:47:47.024Z,40.50
2017-07-31T11:50:14.640Z,39.70
2017-07-31T11:52:42.204Z,39.10
2017-07-31T11:55:10.180Z,40.00
2017-07-31T11:57:38.522Z,38.60
2017-07-31T12:00:06.271Z,38.80
2017-07-31T12:02:33.879Z,39.90
2017-07-31T12:05:01.446Z,38.70
2017-07-31T12:07:30.128Z,40.30
2017-07-31T12:09:57.682Z,39.70
2017-07-31T12:12:25.247Z,40.10
2017-07-31T12:14:53.619Z,40.40
2017-07-31T12:17:21.187Z,40.40
2017-07-31T12:19:49.051Z,39.80
2017-07-31T12:22:16.623Z,40.90
2017-07-31T12:24:44.172Z,39.90
2017-07-31T12:27:12.547Z,41.70
2017-07-31T12:29:40.108Z,41.40
2017-07-31T12:32:08.782Z,40.70
2017-07-31T12:34:36.340Z,40.30
2017-07-31T12:37:03.949Z,41.40
2017-07-31T12:39:31.542Z,41.80
2017-07-31T12:41:59.112Z,41.50
2017-07-31T12:44:27.087Z,41.20
2017-07-31T12:46:54.663Z,41.90
2017-07-31T12:49:22.274Z,41.70
2017-07-31T12:51:49.858Z,41.10
2017-07-31T12:54:17.426Z,40.50
2017-07-31T12:56:45.388Z,40.80
2017-07-31T12:59:12.968Z,41.00
2017-07-31T13:01:40.591Z,40.10
2017-07-31T13:04:08.223Z,39.80
2017-07-31T13:06:35.797Z,40.00
2017-07-31T13:09:04.507Z,39.50
2017-07-31T13:11:32.075Z,38.20
2017-07-31T13:13:59.719Z,36.20
2017-07-31T13:16:27.314Z,35.70
2017-07-31T13:18:54.884Z,35.00
2017-07-31T13:21:22.828Z,33.80
2017-07-31T13:23:51.317Z,34.10
2017-07-31T13:26:18.888Z,33.00
2017-07-31T13:28:46.523Z,31.80
2017-07-31T13:31:14.077Z,31.60
2017-07-31T13:33:41.977Z,30.90
2017-07-31T13:36:09.630Z,30.60
2017-07-31T13:38:37.201Z,29.50
2017-07-31T13:41:04.798Z,29.40
2017-07-31T13:43:32.356Z,28.50
2017-07-31T13:46:00.455Z,27.50
2017-07-31T13:48:28.025Z,26.50
2017-07-31T13:50:55.603Z,26.40
2017-07-31T13:53:23.210Z,25.20
2017-07-31T13:55:50.791Z,24.40
2017-07-31T13:58:18.795Z,23.60
2017-07-31T14:00:46.356Z,22.80
2017-07-31T14:03:13.925Z,21.90
2017-07-31T14:05:43.053Z,22.60
2017-07-31T14:08:10.629Z,22.30
2017-07-31T14:10:38.569Z,21.10
2017-07-31T14:13:06.893Z,21.60
2017-07-31T14:15:34.486Z,21.60
2017-07-31T14:18:02.873Z,20.10
2017-07-31T14:20:30.445Z,20.10
2017-07-31T14:22:59.305Z,19.10
2017-07-31T14:25:27.646Z,19.20
2017-07-31T14:27:55.947Z,18.40
2017-07-31T14:30:23.567Z,17.70
2017-07-31T14:32:51.145Z,17.90
2017-07-31T14:35:19.025Z,17.80
2017-07-31T14:37:46.616Z,17.30
2017-07-31T14:40:14.171Z,17.80
2017-07-31T14:42:41.773Z,18.70
2017-07-31T14:45:09.332Z,20.70
2017-07-31T14:47:37.373Z,20.50
2017-07-31T14:50:05.714Z,21.80
2017-07-31T14:52:33.272Z,22.40
2017-07-31T14:55:00.903Z,23.00
2017-07-31T14:57:28.557Z,23.80
2017-07-31T14:59:56.501Z,24.40
2017-07-31T15:02:24.839Z,25.80
2017-07-31T15:04:52.405Z,25.80
2017-07-31T15:07:20.029Z,25.90
2017-07-31T15:09:47.618Z,26.60
2017-07-31T15:12:15.469Z,26.40
2017-07-31T15:14:43.057Z,27.00
2017-07-31T15:17:10.615Z,27.20
2017-07-31T15:19:38.362Z,27.30
2017-07-31T15:22:05.933Z,26.30
2017-07-31T15:24:33.938Z,24.10
2017-07-31T15:27:01.521Z,22.80
2017-07-31T15:29:29.102Z,21.80
2017-07-31T15:31:56.717Z,20.10
2017-07-31T15:34:24.299Z,18.60
2017-07-31T15:36:52.346Z,17.70
2017-07-31T15:39:19.919Z,17.60
2017-07-31T15:41:48.256Z,15.40
2017-07-31T15:44:15.948Z,15.30
2017-07-31T15:46:43.542Z,14.50
2017-07-31T15:49:11.582Z,14.50
2017-07-31T15:51:39.933Z,13.90
2017-07-31T15:54:07.580Z,13.80
2017-07-31T15:56:35.360Z,13.10
2017-07-31T15:59:02.930Z,12.80
2017-07-31T16:01:30.905Z,13.40
2017-07-31T16:03:58.487Z,14.80
2017-07-31T16:06:26.064Z,15.90
2017-07-31T16:08:53.691Z,16.10
2017-07-31T16:11:21.274Z,16.60
2017-07-31T16:13:49.200Z,16.60
2017-07-31T16:16:16.746Z,17.40
2017-07-31T16:18:44.323Z,17.90
2017-07-31T16:21:11.934Z,19.80
2017-07-31T16:23:39.507Z,19.70
2017-07-31T16:26:07.536Z,21.20
2017-07-31T16:28:35.902Z,23.50
2017-07-31T16:31:03.492Z,23.50
2017-07-31T16:33:31.868Z,25.30
2017-07-31T16:35:59.428Z,25.20
2017-07-31T16:38:37.969Z,26.90
2017-07-31T16:41:06.448Z,26.90
2017-07-31T16:43:56.812Z,27.50
2017-07-31T16:46:25.164Z,27.90
2017-07-31T16:49:04.814Z,27.90
2017-07-31T16:51:32.369Z,28.90
2017-07-31T16:53:59.996Z,28.80
2017-07-31T16:56:27.604Z,29.60
2017-07-31T16:58:55.931Z,30.40
2017-07-31T17:01:23.941Z,30.10
2017-07-31T17:03:51.536Z,30.30
2017-07-31T17:06:19.120Z,30.80
2017-07-31T17:08:46.721Z,31.50
2017-07-31T17:11:14.276Z,32.10
2017-07-31T17:13:42.249Z,32.50
2017-07-31T17:16:09.818Z,32.50
2017-07-31T17:18:37.379Z,32.60
2017-07-31T17:21:04.988Z,33.00
2017-07-31T17:23:32.578Z,33.00
2017-07-31T17:26:00.579Z,33.20
2017-07-31T17:28:28.922Z,33.60
2017-07-31T17:30:56.509Z,33.60
2017-07-31T17:33:24.870Z,33.30
2017-07-31T17:35:52.451Z,34.10
2017-07-31T17:38:21.102Z,35.20
2017-07-31T17:40:48.748Z,35.10
2017-07-31T17:43:16.475Z,36.10
2017-07-31T17:45:44.160Z,37.30
2017-07-31T17:48:11.743Z,38.30
2017-07-31T17:50:40.653Z,38.30
2017-07-31T17:53:08.281Z,39.40
2017-07-31T17:55:35.898Z,39.30
2017-07-31T17:58:03.505Z,39.30
2017-07-31T18:00:31.077Z,39.20
2017-07-31T18:02:58.962Z,39.20
2017-07-31T18:05:26.795Z,39.10
2017-07-31T18:07:54.384Z,39.00
2017-07-31T18:10:22.182Z,39.30
2017-07-31T18:12:50.525Z,40.80
2017-07-31T18:15:18.467Z,40.60
2017-07-31T18:17:46.144Z,41.00
2017-07-31T18:20:13.726Z,41.40
2017-07-31T18:22:41.357Z,41.70
2017-07-31T18:25:09.864Z,42.10
2017-07-31T18:27:37.760Z,42.40
2017-07-31T18:30:05.397Z,42.30
2017-07-31T18:32:32.969Z,42.40
2017-07-31T18:35:00.576Z,42.50
2017-07-31T18:37:28.140Z,43.30
2017-07-31T18:39:56.042Z,44.00
2017-07-31T18:42:23.727Z,44.40
2017-07-31T18:44:51.322Z,44.50
2017-07-31T18:47:18.955Z,44.40
2017-07-31T18:49:47.331Z,44.50
2017-07-31T18:52:15.194Z,44.40
2017-07-31T18:54:42.750Z,44.50
2017-07-31T18:57:11.109Z,45.80
2017-07-31T18:59:39.502Z,44.90
2017-07-31T19:02:07.070Z,44.60
2017-07-31T19:04:35.032Z,44.50
2017-07-31T19:07:02.623Z,45.30
2017-07-31T19:09:30.209Z,45.30
2017-07-31T19:11:58.953Z,44.90
2017-07-31T19:14:26.530Z,45.10
2017-07-31T19:16:55.026Z,44.90
2017-07-31T19:19:22.633Z,44.60
2017-07-31T19:21:50.210Z,44.60
2017-07-31T19:24:17.889Z,44.60
2017-07-31T19:26:45.461Z,44.60
2017-07-31T19:29:13.363Z,45.00
2017-07-31T19:31:40.955Z,44.90
2017-07-31T19:34:09.295Z,45.30
2017-07-31T19:36:36.908Z,44.80
2017-07-31T19:39:05.263Z,45.70
2017-07-31T19:41:33.265Z,45.60
2017-07-31T19:44:00.811Z,46.60
2017-07-31T19:46:28.454Z,45.70
2017-07-31T19:48:56.225Z,45.90
2017-07-31T19:51:23.880Z,46.10
2017-07-31T19:53:51.772Z,46.40
2017-07-31T19:56:20.105Z,46.60
2017-07-31T19:58:47.657Z,46.50
2017-07-31T20:01:15.308Z,47.20
2017-07-31T20:03:42.911Z,47.80
2017-07-31T20:06:10.846Z,48.00
2017-07-31T20:08:38.428Z,47.70
2017-07-31T20:11:06.036Z,47.90
2017-07-31T20:13:33.661Z,47.70
2017-07-31T20:16:01.313Z,48.60
2017-07-31T20:18:29.277Z,48.70
2017-07-31T20:20:56.932Z,49.10
2017-07-31T20:23:24.513Z,49.50
2017-07-31T20:25:52.127Z,49.00
2017-07-31T20:28:19.700Z,49.30
2017-07-31T20:30:47.603Z,49.30
2017-07-31T20:33:15.201Z,49.60
2017-07-31T20:35:42.800Z,50.00
2017-07-31T20:38:10.440Z,49.80
2017-07-31T20:40:38.515Z,50.20
2017-07-31T20:43:06.628Z,50.30
2017-07-31T20:45:34.212Z,50.70
2017-07-31T20:48:01.804Z,50.80
2017-07-31T20:50:29.432Z,50.60
2017-07-31T20:52:57.028Z,50.60
2017-07-31T20:55:25.029Z,50.60
2017-07-31T20:57:52.603Z,50.60
2017-07-31T21:00:20.161Z,50.60
2017-07-31T21:02:48.551Z,51.60
2017-07-31T21:05:16.170Z,51.40
2017-07-31T21:07:44.177Z,51.70
2017-07-31T21:10:12.560Z,53.20
2017-07-31T21:12:40.225Z,52.20
2017-07-31T21:15:07.856Z,52.80
2017-07-31T21:17:35.436Z,52.70
2017-07-31T21:20:03.435Z,52.70
2017-07-31T21:22:31.036Z,52.70
2017-07-31T21:24:58.593Z,53.40
2017-07-31T21:27:26.225Z,53.60
2017-07-31T21:29:53.805Z,53.60
2017-07-31T21:32:21.800Z,53.70
2017-07-31T21:34:49.367Z,54.00
2017-07-31T21:37:16.965Z,53.90
2017-07-31T21:39:44.645Z,53.90
2017-07-31T21:42:12.221Z,54.10
2017-07-31T21:44:40.112Z,54.40
2017-07-31T21:47:07.684Z,54.30
2017-07-31T21:49:35.309Z,54.50
2017-07-31T21:52:02.915Z,54.50
2017-07-31T21:54:31.312Z,55.20
2017-07-31T21:56:59.179Z,55.00
2017-07-31T21:59:26.752Z,55.00
2017-07-31T22:01:54.291Z,55.70
2017-07-31T22:04:21.913Z,55.20
2017-07-31T22:06:49.487Z,56.10
2017-07-31T22:09:17.591Z,55.50
2017-07-31T22:11:45.165Z,55.60
2017-07-31T22:14:12.720Z,56.10
2017-07-31T22:17:00.129Z,56.20
2017-07-31T22:19:27.769Z,56.80
2017-07-31T22:22:00.913Z,56.20
2017-07-31T22:24:28.558Z,56.10
2017-07-31T22:26:56.154Z,56.00
2017-07-31T22:29:24.241Z,57.00
2017-07-31T22:31:51.798Z,56.00
2017-07-31T22:34:19.397Z,57.40
2017-07-31T22:36:46.994Z,57.30
2017-07-31T22:39:14.566Z,58.30
2017-07-31T22:41:42.468Z,58.80
2017-07-31T22:44:10.064Z,58.90
2017-07-31T22:46:37.656Z,59.00
2017-07-31T22:49:05.357Z,59.00
2017-07-31T22:51:33.749Z,59.00
2017-07-31T22:54:01.690Z,58.80
2017-07-31T22:56:29.281Z,58.70
2017-07-31T22:58:56.863Z,59.30
2017-07-31T23:01:24.473Z,59.50
2017-07-31T23:03:52.908Z,60.10
2017-07-31T23:06:20.829Z,59.40
2017-07-31T23:08:49.983Z,59.40
2017-07-31T23:11:17.577Z,59.20
2017-07-31T23:13:46.082Z,59.30
2017-07-31T23:16:13.671Z,59.20
2017-07-31T23:18:41.605Z,59.60
2017-07-31T23:21:09.962Z,59.70
2017-07-31T23:23:37.549Z,59.60
2017-07-31T23:26:05.172Z,60.50
2017-07-31T23:28:32.735Z,60.10
2017-07-31T23:31:00.614Z,59.50
2017-07-31T23:33:28.231Z,60.00
2017-07-31T23:35:55.910Z,59.70
2017-07-31T23:38:23.529Z,59.80
2017-07-31T23:40:51.084Z,60.30
2017-07-31T23:43:19.027Z,60.40
2017-07-31T23:45:47.364Z,60.80
2017-07-31T23:48:14.961Z,60.30
2017-07-31T23:50:42.576Z,60.00
2017-07-31T23:53:10.148Z,60.50
2017-07-31T23:55:38.163Z,60.30
2017-07-31T23:58:06.495Z,60.20
